Terminal Aerodrome Forecast
Issued by NWS

Home | Current Version | Previous Version | Text Only | Print | Product List | Glossary On
Versions: 1 2 3 4 5 6 7 8 9 10 11 12 13 14
048
FTUS42 TJSJ 241740
TAFJBQ
TAF
TJBQ 241740Z 2418/2518 09016G23KT P6SM VCTS SCT020CB SCT080
      TEMPO 2418/2422 SHRA BKN030
     FM242300 10010KT P6SM FEW060
     FM251400 08013KT P6SM SCT025
      AMD NOT SKED 2502/2511=

USA.gov is the U.S. government's official web portal to all federal, state and local government web resources and services.